sensor_id;sensor_type;location;lat;lon;timestamp;temperature;humidity
13174;DHT22;6652;48.802;9.190;2023-05-07T00:00:43;15.50;99.90
13174;DHT22;6652;48.802;9.190;2023-05-07T00:03:10;15.60;99.90
13174;DHT22;6652;48.802;9.190;2023-05-07T00:05:39;15.50;99.90
13174;DHT22;6652;48.802;9.190;2023-05-07T00:08:06;15.40;99.90
13174;DHT22;6652;48.802;9.190;2023-05-07T00:10:33;15.40;99.90
13174;DHT22;6652;48.802;9.190;2023-05-07T00:13:00;15.40;99.90
13174;DHT22;6652;48.802;9.190;2023-05-07T00:15:28;15.30;99.90
13174;DHT22;6652;48.802;9.190;2023-05-07T00:17:55;15.30;99.90
13174;DHT22;6652;48.802;9.190;2023-05-07T00:20:24;15.30;99.90
13174;DHT22;6652;48.802;9.190;2023-05-07T00:22:50;15.30;99.90
13174;DHT22;6652;48.802;9.190;2023-05-07T00:25:18;15.30;99.90
13174;DHT22;6652;48.802;9.190;2023-05-07T00:27:46;15.20;99.90
13174;DHT22;6652;48.802;9.190;2023-05-07T00:30:13;15.00;99.90
13174;DHT22;6652;48.802;9.190;2023-05-07T00:32:41;15.20;99.90
13174;DHT22;6652;48.802;9.190;2023-05-07T00:35:11;15.10;99.90
13174;DHT22;6652;48.802;9.190;2023-05-07T00:37:38;15.10;99.90
13174;DHT22;6652;48.802;9.190;2023-05-07T00:40:06;15.10;99.90
13174;DHT22;6652;48.802;9.190;2023-05-07T00:42:33;15.10;99.90
13174;DHT22;6652;48.802;9.190;2023-05-07T00:45:00;15.20;99.90
13174;DHT22;6652;48.802;9.190;2023-05-07T00:47:27;15.00;99.90
13174;DHT22;6652;48.802;9.190;2023-05-07T00:49:56;15.00;99.90
13174;DHT22;6652;48.802;9.190;2023-05-07T00:52:25;14.90;99.90
13174;DHT22;6652;48.802;9.190;2023-05-07T00:54:52;15.00;99.90
13174;DHT22;6652;48.802;9.190;2023-05-07T00:57:20;14.90;99.90
13174;DHT22;6652;48.802;9.190;2023-05-07T00:59:48;14.90;99.90
13174;DHT22;6652;48.802;9.190;2023-05-07T01:02:15;14.90;99.90
13174;DHT22;6652;48.802;9.190;2023-05-07T01:04:41;14.90;99.90
13174;DHT22;6652;48.802;9.190;2023-05-07T01:07:10;14.80;99.90
13174;DHT22;6652;48.802;9.190;2023-05-07T01:09:36;14.80;99.90
13174;DHT22;6652;48.802;9.190;2023-05-07T01:12:04;14.70;99.90
13174;DHT22;6652;48.802;9.190;2023-05-07T01:14:31;14.70;99.90
13174;DHT22;6652;48.802;9.190;2023-05-07T01:16:59;14.70;99.90
13174;DHT22;6652;48.802;9.190;2023-05-07T01:19:25;14.80;99.90
13174;DHT22;6652;48.802;9.190;2023-05-07T01:22:00;14.70;99.90
13174;DHT22;6652;48.802;9.190;2023-05-07T01:24:29;14.60;99.90
13174;DHT22;6652;48.802;9.190;2023-05-07T01:26:56;14.70;99.90
13174;DHT22;6652;48.802;9.190;2023-05-07T01:29:23;14.70;99.90
13174;DHT22;6652;48.802;9.190;2023-05-07T01:31:51;14.60;99.90
13174;DHT22;6652;48.802;9.190;2023-05-07T01:34:19;14.60;99.90
13174;DHT22;6652;48.802;9.190;2023-05-07T01:36:48;14.60;99.90
13174;DHT22;6652;48.802;9.190;2023-05-07T01:39:15;14.50;99.90
13174;DHT22;6652;48.802;9.190;2023-05-07T01:41:45;14.50;99.90
13174;DHT22;6652;48.802;9.190;2023-05-07T01:44:13;14.50;99.90
13174;DHT22;6652;48.802;9.190;2023-05-07T01:46:41;14.50;99.90
13174;DHT22;6652;48.802;9.190;2023-05-07T01:49:08;14.50;99.90
13174;DHT22;6652;48.802;9.190;2023-05-07T01:52:00;14.40;99.90
13174;DHT22;6652;48.802;9.190;2023-05-07T01:54:27;14.40;99.90
13174;DHT22;6652;48.802;9.190;2023-05-07T01:56:56;14.40;99.90
13174;DHT22;6652;48.802;9.190;2023-05-07T01:59:23;14.40;99.90
13174;DHT22;6652;48.802;9.190;2023-05-07T02:01:50;14.40;99.90
13174;DHT22;6652;48.802;9.190;2023-05-07T02:04:17;14.30;99.90
13174;DHT22;6652;48.802;9.190;2023-05-07T02:06:44;14.30;99.90
13174;DHT22;6652;48.802;9.190;2023-05-07T02:09:11;14.30;99.90
13174;DHT22;6652;48.802;9.190;2023-05-07T02:11:38;14.30;99.90
13174;DHT22;6652;48.802;9.190;2023-05-07T02:14:06;13.90;99.90
13174;DHT22;6652;48.802;9.190;2023-05-07T02:16:33;14.20;99.90
13174;DHT22;6652;48.802;9.190;2023-05-07T02:19:00;14.20;99.90
13174;DHT22;6652;48.802;9.190;2023-05-07T02:21:26;14.20;99.90
13174;DHT22;6652;48.802;9.190;2023-05-07T02:23:53;14.20;99.90
13174;DHT22;6652;48.802;9.190;2023-05-07T02:26:20;14.20;99.90
13174;DHT22;6652;48.802;9.190;2023-05-07T02:28:50;14.20;99.90
13174;DHT22;6652;48.802;9.190;2023-05-07T02:31:18;14.10;99.90
13174;DHT22;6652;48.802;9.190;2023-05-07T02:33:45;14.10;99.90
13174;DHT22;6652;48.802;9.190;2023-05-07T02:36:12;14.10;99.90
13174;DHT22;6652;48.802;9.190;2023-05-07T02:38:39;14.10;99.90
13174;DHT22;6652;48.802;9.190;2023-05-07T02:41:06;14.00;99.90
13174;DHT22;6652;48.802;9.190;2023-05-07T02:43:33;14.00;99.90
13174;DHT22;6652;48.802;9.190;2023-05-07T02:46:03;14.00;99.90
13174;DHT22;6652;48.802;9.190;2023-05-07T02:48:32;14.00;99.90
13174;DHT22;6652;48.802;9.190;2023-05-07T02:50:59;13.90;99.90
13174;DHT22;6652;48.802;9.190;2023-05-07T02:53:27;14.10;99.90
13174;DHT22;6652;48.802;9.190;2023-05-07T02:55:56;13.80;99.90
13174;DHT22;6652;48.802;9.190;2023-05-07T02:58:23;13.80;99.90
13174;DHT22;6652;48.802;9.190;2023-05-07T03:00:49;13.70;99.90
13174;DHT22;6652;48.802;9.190;2023-05-07T03:03:16;13.70;99.90
13174;DHT22;6652;48.802;9.190;2023-05-07T03:05:45;13.60;99.90
13174;DHT22;6652;48.802;9.190;2023-05-07T03:08:12;13.80;99.90
13174;DHT22;6652;48.802;9.190;2023-05-07T03:10:39;13.50;99.90
13174;DHT22;6652;48.802;9.190;2023-05-07T03:13:06;13.60;99.90
13174;DHT22;6652;48.802;9.190;2023-05-07T03:15:32;13.60;99.90
13174;DHT22;6652;48.802;9.190;2023-05-07T03:17:59;13.50;99.90
13174;DHT22;6652;48.802;9.190;2023-05-07T03:20:26;13.50;99.90
13174;DHT22;6652;48.802;9.190;2023-05-07T03:22:54;13.40;99.90
13174;DHT22;6652;48.802;9.190;2023-05-07T03:25:21;13.30;99.90
13174;DHT22;6652;48.802;9.190;2023-05-07T03:27:48;13.30;99.90
13174;DHT22;6652;48.802;9.190;2023-05-07T03:30:15;13.20;99.90
13174;DHT22;6652;48.802;9.190;2023-05-07T03:32:42;13.30;99.90
13174;DHT22;6652;48.802;9.190;2023-05-07T03:35:09;13.20;99.90
13174;DHT22;6652;48.802;9.190;2023-05-07T03:37:37;13.20;99.90
13174;DHT22;6652;48.802;9.190;2023-05-07T03:40:07;13.20;99.90
13174;DHT22;6652;48.802;9.190;2023-05-07T03:42:35;13.20;99.90
13174;DHT22;6652;48.802;9.190;2023-05-07T03:45:02;13.20;99.90
13174;DHT22;6652;48.802;9.190;2023-05-07T03:47:29;13.10;99.90
13174;DHT22;6652;48.802;9.190;2023-05-07T03:49:56;13.10;99.90
13174;DHT22;6652;48.802;9.190;2023-05-07T03:52:23;13.10;99.90
13174;DHT22;6652;48.802;9.190;2023-05-07T03:54:52;13.10;99.90
13174;DHT22;6652;48.802;9.190;2023-05-07T03:57:20;13.10;99.90
13174;DHT22;6652;48.802;9.190;2023-05-07T03:59:47;13.10;99.90
13174;DHT22;6652;48.802;9.190;2023-05-07T04:02:14;13.10;99.90
13174;DHT22;6652;48.802;9.190;2023-05-07T04:04:41;13.00;99.90
13174;DHT22;6652;48.802;9.190;2023-05-07T04:07:08;13.10;99.90
13174;DHT22;6652;48.802;9.190;2023-05-07T04:09:35;13.10;99.90
13174;DHT22;6652;48.802;9.190;2023-05-07T04:12:02;13.10;99.90
13174;DHT22;6652;48.802;9.190;2023-05-07T04:14:30;13.10;99.90
13174;DHT22;6652;48.802;9.190;2023-05-07T04:16:57;13.10;99.90
13174;DHT22;6652;48.802;9.190;2023-05-07T04:19:24;13.20;99.90
13174;DHT22;6652;48.802;9.190;2023-05-07T04:21:51;13.20;99.90
13174;DHT22;6652;48.802;9.190;2023-05-07T04:24:25;13.20;99.90
13174;DHT22;6652;48.802;9.190;2023-05-07T04:26:53;13.20;99.90
13174;DHT22;6652;48.802;9.190;2023-05-07T04:29:20;13.30;99.90
13174;DHT22;6652;48.802;9.190;2023-05-07T04:31:48;13.30;99.90
13174;DHT22;6652;48.802;9.190;2023-05-07T04:34:15;13.40;99.90
13174;DHT22;6652;48.802;9.190;2023-05-07T04:36:42;13.50;99.90
13174;DHT22;6652;48.802;9.190;2023-05-07T04:39:09;13.50;99.90
13174;DHT22;6652;48.802;9.190;2023-05-07T04:41:36;13.60;99.90
13174;DHT22;6652;48.802;9.190;2023-05-07T04:44:03;13.90;99.90
13174;DHT22;6652;48.802;9.190;2023-05-07T04:46:31;14.40;99.90
13174;DHT22;6652;48.802;9.190;2023-05-07T04:48:59;14.90;99.90
13174;DHT22;6652;48.802;9.190;2023-05-07T04:51:26;15.00;99.90
13174;DHT22;6652;48.802;9.190;2023-05-07T04:53:53;14.90;99.90
13174;DHT22;6652;48.802;9.190;2023-05-07T04:56:20;14.80;99.90
13174;DHT22;6652;48.802;9.190;2023-05-07T04:58:47;14.70;99.90
13174;DHT22;6652;48.802;9.190;2023-05-07T05:01:13;14.60;99.90
13174;DHT22;6652;48.802;9.190;2023-05-07T05:03:40;14.50;99.90
13174;DHT22;6652;48.802;9.190;2023-05-07T05:06:08;14.40;99.90
13174;DHT22;6652;48.802;9.190;2023-05-07T05:08:35;14.40;99.90
13174;DHT22;6652;48.802;9.190;2023-05-07T05:11:02;14.40;99.90
13174;DHT22;6652;48.802;9.190;2023-05-07T05:13:28;14.40;99.90
13174;DHT22;6652;48.802;9.190;2023-05-07T05:15:55;14.40;99.90
13174;DHT22;6652;48.802;9.190;2023-05-07T05:18:22;14.30;99.90
13174;DHT22;6652;48.802;9.190;2023-05-07T05:20:49;14.30;99.90
13174;DHT22;6652;48.802;9.190;2023-05-07T05:23:19;14.40;99.90
13174;DHT22;6652;48.802;9.190;2023-05-07T05:25:45;14.50;99.90
13174;DHT22;6652;48.802;9.190;2023-05-07T05:28:12;14.60;99.90
13174;DHT22;6652;48.802;9.190;2023-05-07T05:30:39;14.70;99.90
13174;DHT22;6652;48.802;9.190;2023-05-07T05:33:06;14.80;99.90
13174;DHT22;6652;48.802;9.190;2023-05-07T05:35:33;15.70;99.90
13174;DHT22;6652;48.802;9.190;2023-05-07T05:38:00;17.00;99.90
13174;DHT22;6652;48.802;9.190;2023-05-07T05:40:29;17.70;99.90
13174;DHT22;6652;48.802;9.190;2023-05-07T05:42:55;18.50;99.90
13174;DHT22;6652;48.802;9.190;2023-05-07T05:45:22;19.10;99.90
13174;DHT22;6652;48.802;9.190;2023-05-07T05:47:49;19.50;99.90
13174;DHT22;6652;48.802;9.190;2023-05-07T05:50:16;19.90;99.90
13174;DHT22;6652;48.802;9.190;2023-05-07T05:52:42;20.00;99.90
13174;DHT22;6652;48.802;9.190;2023-05-07T05:55:09;19.80;99.90
13174;DHT22;6652;48.802;9.190;2023-05-07T05:57:38;19.50;99.90
13174;DHT22;6652;48.802;9.190;2023-05-07T06:00:06;19.30;99.90
13174;DHT22;6652;48.802;9.190;2023-05-07T06:02:34;19.50;99.90
13174;DHT22;6652;48.802;9.190;2023-05-07T06:05:00;20.10;99.90
13174;DHT22;6652;48.802;9.190;2023-05-07T06:07:27;21.00;99.90
13174;DHT22;6652;48.802;9.190;2023-05-07T06:09:54;21.20;99.90
13174;DHT22;6652;48.802;9.190;2023-05-07T06:12:21;21.50;99.90
13174;DHT22;6652;48.802;9.190;2023-05-07T06:14:49;22.00;99.90
13174;DHT22;6652;48.802;9.190;2023-05-07T06:17:16;22.30;99.90
13174;DHT22;6652;48.802;9.190;2023-05-07T06:19:42;22.30;99.90
13174;DHT22;6652;48.802;9.190;2023-05-07T06:22:09;22.10;99.90
13174;DHT22;6652;48.802;9.190;2023-05-07T06:24:36;21.70;99.90
13174;DHT22;6652;48.802;9.190;2023-05-07T06:27:05;21.30;99.90
13174;DHT22;6652;48.802;9.190;2023-05-07T06:29:32;21.10;99.90
13174;DHT22;6652;48.802;9.190;2023-05-07T06:32:07;20.90;99.90
13174;DHT22;6652;48.802;9.190;2023-05-07T06:34:34;20.80;99.90
13174;DHT22;6652;48.802;9.190;2023-05-07T06:37:02;20.80;99.90
13174;DHT22;6652;48.802;9.190;2023-05-07T06:39:29;20.90;99.90
13174;DHT22;6652;48.802;9.190;2023-05-07T06:41:56;21.60;99.90
13174;DHT22;6652;48.802;9.190;2023-05-07T06:44:22;22.10;99.90
13174;DHT22;6652;48.802;9.190;2023-05-07T06:46:49;22.80;99.90
13174;DHT22;6652;48.802;9.190;2023-05-07T06:49:22;23.40;99.90
13174;DHT22;6652;48.802;9.190;2023-05-07T06:51:49;23.70;99.90
13174;DHT22;6652;48.802;9.190;2023-05-07T06:54:26;24.30;99.90
13174;DHT22;6652;48.802;9.190;2023-05-07T06:56:53;25.40;99.90
13174;DHT22;6652;48.802;9.190;2023-05-07T06:59:20;26.20;99.80
13174;DHT22;6652;48.802;9.190;2023-05-07T07:01:46;27.00;97.70
13174;DHT22;6652;48.802;9.190;2023-05-07T07:04:13;27.70;96.10
13174;DHT22;6652;48.802;9.190;2023-05-07T07:06:41;28.10;94.00
13174;DHT22;6652;48.802;9.190;2023-05-07T07:09:08;28.50;92.30
13174;DHT22;6652;48.802;9.190;2023-05-07T07:11:35;28.90;90.60
13174;DHT22;6652;48.802;9.190;2023-05-07T07:14:02;29.40;87.80
13174;DHT22;6652;48.802;9.190;2023-05-07T07:16:30;29.60;85.50
13174;DHT22;6652;48.802;9.190;2023-05-07T07:18:57;30.00;83.70
13174;DHT22;6652;48.802;9.190;2023-05-07T07:21:24;30.20;80.20
13174;DHT22;6652;48.802;9.190;2023-05-07T07:23:52;30.20;77.90
13174;DHT22;6652;48.802;9.190;2023-05-07T07:26:19;30.10;76.80
13174;DHT22;6652;48.802;9.190;2023-05-07T07:28:46;30.20;77.20
13174;DHT22;6652;48.802;9.190;2023-05-07T07:31:13;30.50;75.20
13174;DHT22;6652;48.802;9.190;2023-05-07T07:33:40;31.00;73.40
13174;DHT22;6652;48.802;9.190;2023-05-07T07:36:08;31.30;71.20
13174;DHT22;6652;48.802;9.190;2023-05-07T07:38:35;31.30;69.50
13174;DHT22;6652;48.802;9.190;2023-05-07T07:41:03;31.10;68.90
13174;DHT22;6652;48.802;9.190;2023-05-07T07:43:30;30.20;69.50
13174;DHT22;6652;48.802;9.190;2023-05-07T07:45:56;30.10;70.60
13174;DHT22;6652;48.802;9.190;2023-05-07T07:48:23;30.30;70.30
13174;DHT22;6652;48.802;9.190;2023-05-07T07:50:50;30.60;70.80
13174;DHT22;6652;48.802;9.190;2023-05-07T07:53:17;30.60;68.50
13174;DHT22;6652;48.802;9.190;2023-05-07T07:55:44;30.30;68.30
13174;DHT22;6652;48.802;9.190;2023-05-07T07:58:12;29.60;69.60
13174;DHT22;6652;48.802;9.190;2023-05-07T08:00:39;29.20;71.80
13174;DHT22;6652;48.802;9.190;2023-05-07T08:03:08;28.50;72.60
13174;DHT22;6652;48.802;9.190;2023-05-07T08:05:35;28.20;73.40
13174;DHT22;6652;48.802;9.190;2023-05-07T08:08:04;27.70;74.20
13174;DHT22;6652;48.802;9.190;2023-05-07T08:10:31;27.40;75.30
13174;DHT22;6652;48.802;9.190;2023-05-07T08:13:00;26.90;76.30
13174;DHT22;6652;48.802;9.190;2023-05-07T08:15:28;26.50;77.20
13174;DHT22;6652;48.802;9.190;2023-05-07T08:17:55;26.10;79.20
13174;DHT22;6652;48.802;9.190;2023-05-07T08:20:22;26.10;79.60
13174;DHT22;6652;48.802;9.190;2023-05-07T08:22:49;26.40;81.40
13174;DHT22;6652;48.802;9.190;2023-05-07T08:25:16;27.00;79.70
13174;DHT22;6652;48.802;9.190;2023-05-07T08:27:43;27.40;78.30
13174;DHT22;6652;48.802;9.190;2023-05-07T08:30:11;27.90;76.10
13174;DHT22;6652;48.802;9.190;2023-05-07T08:32:39;28.40;76.10
13174;DHT22;6652;48.802;9.190;2023-05-07T08:35:07;28.50;74.10
13174;DHT22;6652;48.802;9.190;2023-05-07T08:37:34;28.50;75.00
13174;DHT22;6652;48.802;9.190;2023-05-07T08:40:01;28.40;74.30
13174;DHT22;6652;48.802;9.190;2023-05-07T08:42:28;28.30;74.60
13174;DHT22;6652;48.802;9.190;2023-05-07T08:44:57;28.40;75.40
13174;DHT22;6652;48.802;9.190;2023-05-07T08:47:30;28.80;73.90
13174;DHT22;6652;48.802;9.190;2023-05-07T08:50:02;29.00;73.70
13174;DHT22;6652;48.802;9.190;2023-05-07T08:52:29;29.30;73.30
13174;DHT22;6652;48.802;9.190;2023-05-07T08:54:56;30.20;71.10
13174;DHT22;6652;48.802;9.190;2023-05-07T08:57:23;30.80;70.80
13174;DHT22;6652;48.802;9.190;2023-05-07T08:59:50;31.70;68.10
13174;DHT22;6652;48.802;9.190;2023-05-07T09:02:16;32.20;66.60
13174;DHT22;6652;48.802;9.190;2023-05-07T09:04:43;32.40;65.30
13174;DHT22;6652;48.802;9.190;2023-05-07T09:07:17;32.50;65.00
13174;DHT22;6652;48.802;9.190;2023-05-07T09:09:45;33.10;63.30
13174;DHT22;6652;48.802;9.190;2023-05-07T09:12:12;33.40;60.80
13174;DHT22;6652;48.802;9.190;2023-05-07T09:14:43;33.00;60.90
13174;DHT22;6652;48.802;9.190;2023-05-07T09:17:28;32.20;61.60
13174;DHT22;6652;48.802;9.190;2023-05-07T09:20:02;32.10;64.10
13174;DHT22;6652;48.802;9.190;2023-05-07T09:22:36;32.30;61.90
13174;DHT22;6652;48.802;9.190;2023-05-07T09:25:04;32.50;63.80
13174;DHT22;6652;48.802;9.190;2023-05-07T09:27:31;33.40;62.00
13174;DHT22;6652;48.802;9.190;2023-05-07T09:29:58;33.20;59.80
13174;DHT22;6652;48.802;9.190;2023-05-07T09:32:25;32.90;59.90
13174;DHT22;6652;48.802;9.190;2023-05-07T09:34:53;32.90;59.60
13174;DHT22;6652;48.802;9.190;2023-05-07T09:37:20;33.20;59.90
13174;DHT22;6652;48.802;9.190;2023-05-07T09:39:49;33.60;59.10
13174;DHT22;6652;48.802;9.190;2023-05-07T09:42:23;33.10;58.90
13174;DHT22;6652;48.802;9.190;2023-05-07T09:44:50;32.60;59.40
13174;DHT22;6652;48.802;9.190;2023-05-07T09:47:19;32.60;59.80
13174;DHT22;6652;48.802;9.190;2023-05-07T09:49:48;32.50;60.50
13174;DHT22;6652;48.802;9.190;2023-05-07T09:52:15;32.60;61.00
13174;DHT22;6652;48.802;9.190;2023-05-07T09:54:43;32.10;59.70
13174;DHT22;6652;48.802;9.190;2023-05-07T09:57:13;31.90;62.00
13174;DHT22;6652;48.802;9.190;2023-05-07T09:59:42;32.00;61.00
13174;DHT22;6652;48.802;9.190;2023-05-07T10:02:10;32.30;61.40
13174;DHT22;6652;48.802;9.190;2023-05-07T10:04:37;32.50;60.10
13174;DHT22;6652;48.802;9.190;2023-05-07T10:07:04;32.70;60.10
13174;DHT22;6652;48.802;9.190;2023-05-07T10:09:32;32.60;59.40
13174;DHT22;6652;48.802;9.190;2023-05-07T10:12:04;32.30;60.40
13174;DHT22;6652;48.802;9.190;2023-05-07T10:14:33;32.50;59.00
13174;DHT22;6652;48.802;9.190;2023-05-07T10:17:02;32.10;59.80
13174;DHT22;6652;48.802;9.190;2023-05-07T10:19:29;31.80;60.10
13174;DHT22;6652;48.802;9.190;2023-05-07T10:22:01;31.60;62.10
13174;DHT22;6652;48.802;9.190;2023-05-07T10:24:32;31.40;60.90
13174;DHT22;6652;48.802;9.190;2023-05-07T10:27:02;31.80;61.90
13174;DHT22;6652;48.802;9.190;2023-05-07T10:29:38;32.00;60.10
13174;DHT22;6652;48.802;9.190;2023-05-07T10:32:19;31.60;59.70
13174;DHT22;6652;48.802;9.190;2023-05-07T10:34:55;31.00;62.00
13174;DHT22;6652;48.802;9.190;2023-05-07T10:37:24;31.30;62.40
13174;DHT22;6652;48.802;9.190;2023-05-07T10:39:51;31.50;60.90
13174;DHT22;6652;48.802;9.190;2023-05-07T10:42:18;31.50;60.40
13174;DHT22;6652;48.802;9.190;2023-05-07T10:44:47;30.40;61.10
13174;DHT22;6652;48.802;9.190;2023-05-07T10:47:16;29.70;63.30
13174;DHT22;6652;48.802;9.190;2023-05-07T10:50:20;29.10;63.70
13174;DHT22;6652;48.802;9.190;2023-05-07T10:53:24;28.90;64.10
13174;DHT22;6652;48.802;9.190;2023-05-07T10:56:24;28.30;65.40
13174;DHT22;6652;48.802;9.190;2023-05-07T10:58:52;28.00;66.40
13174;DHT22;6652;48.802;9.190;2023-05-07T11:01:49;27.70;67.70
13174;DHT22;6652;48.802;9.190;2023-05-07T11:04:16;27.70;67.60
13174;DHT22;6652;48.802;9.190;2023-05-07T11:07:26;27.80;68.20
13174;DHT22;6652;48.802;9.190;2023-05-07T11:10:02;28.30;68.70
13174;DHT22;6652;48.802;9.190;2023-05-07T11:12:50;28.80;65.80
13174;DHT22;6652;48.802;9.190;2023-05-07T11:15:39;29.10;64.10
13174;DHT22;6652;48.802;9.190;2023-05-07T11:18:07;29.50;64.90
13174;DHT22;6652;48.802;9.190;2023-05-07T11:20:52;29.70;64.50
13174;DHT22;6652;48.802;9.190;2023-05-07T11:23:56;29.60;62.20
13174;DHT22;6652;48.802;9.190;2023-05-07T11:26:26;29.40;62.60
13174;DHT22;6652;48.802;9.190;2023-05-07T11:28:53;29.50;63.20
13174;DHT22;6652;48.802;9.190;2023-05-07T11:31:22;29.40;63.10
13174;DHT22;6652;48.802;9.190;2023-05-07T11:33:50;29.20;64.20
13174;DHT22;6652;48.802;9.190;2023-05-07T11:36:18;28.60;66.00
13174;DHT22;6652;48.802;9.190;2023-05-07T11:38:46;28.10;67.80
13174;DHT22;6652;48.802;9.190;2023-05-07T11:41:12;27.90;69.10
13174;DHT22;6652;48.802;9.190;2023-05-07T11:43:55;27.50;69.70
13174;DHT22;6652;48.802;9.190;2023-05-07T11:46:22;27.30;70.90
13174;DHT22;6652;48.802;9.190;2023-05-07T11:48:49;27.10;71.60
13174;DHT22;6652;48.802;9.190;2023-05-07T11:51:20;26.90;72.30
13174;DHT22;6652;48.802;9.190;2023-05-07T11:53:47;26.60;73.50
13174;DHT22;6652;48.802;9.190;2023-05-07T11:56:16;26.50;74.40
13174;DHT22;6652;48.802;9.190;2023-05-07T11:58:44;26.20;74.00
13174;DHT22;6652;48.802;9.190;2023-05-07T12:01:13;26.20;74.30
13174;DHT22;6652;48.802;9.190;2023-05-07T12:03:42;26.00;75.00
13174;DHT22;6652;48.802;9.190;2023-05-07T12:06:10;25.90;75.30
13174;DHT22;6652;48.802;9.190;2023-05-07T12:08:37;25.70;77.60
13174;DHT22;6652;48.802;9.190;2023-05-07T12:11:07;25.50;78.20
13174;DHT22;6652;48.802;9.190;2023-05-07T12:13:35;25.20;80.30
13174;DHT22;6652;48.802;9.190;2023-05-07T12:16:02;25.20;81.90
13174;DHT22;6652;48.802;9.190;2023-05-07T12:18:32;25.00;83.10
13174;DHT22;6652;48.802;9.190;2023-05-07T12:20:59;24.90;84.00
13174;DHT22;6652;48.802;9.190;2023-05-07T12:23:26;24.80;85.40
13174;DHT22;6652;48.802;9.190;2023-05-07T12:25:53;24.60;87.60
13174;DHT22;6652;48.802;9.190;2023-05-07T12:28:20;24.80;90.40
13174;DHT22;6652;48.802;9.190;2023-05-07T12:30:48;24.10;91.40
13174;DHT22;6652;48.802;9.190;2023-05-07T12:33:16;23.80;92.10
13174;DHT22;6652;48.802;9.190;2023-05-07T12:35:45;23.60;93.90
13174;DHT22;6652;48.802;9.190;2023-05-07T12:38:14;23.40;94.00
13174;DHT22;6652;48.802;9.190;2023-05-07T12:40:42;23.20;95.10
13174;DHT22;6652;48.802;9.190;2023-05-07T12:43:15;23.00;96.10
13174;DHT22;6652;48.802;9.190;2023-05-07T12:45:43;22.70;97.50
13174;DHT22;6652;48.802;9.190;2023-05-07T12:48:10;22.40;98.90
13174;DHT22;6652;48.802;9.190;2023-05-07T12:50:37;22.10;99.40
13174;DHT22;6652;48.802;9.190;2023-05-07T12:53:06;21.80;99.90
13174;DHT22;6652;48.802;9.190;2023-05-07T12:55:41;21.50;99.90
13174;DHT22;6652;48.802;9.190;2023-05-07T12:58:08;21.20;99.90
13174;DHT22;6652;48.802;9.190;2023-05-07T13:00:41;20.90;99.90
13174;DHT22;6652;48.802;9.190;2023-05-07T13:03:09;20.50;99.90
13174;DHT22;6652;48.802;9.190;2023-05-07T13:05:36;20.40;99.90
13174;DHT22;6652;48.802;9.190;2023-05-07T13:08:04;20.40;99.90
13174;DHT22;6652;48.802;9.190;2023-05-07T13:10:31;20.40;99.90
13174;DHT22;6652;48.802;9.190;2023-05-07T13:12:59;20.20;99.90
13174;DHT22;6652;48.802;9.190;2023-05-07T13:15:26;20.10;99.90
13174;DHT22;6652;48.802;9.190;2023-05-07T13:17:53;19.90;99.90
13174;DHT22;6652;48.802;9.190;2023-05-07T13:20:20;19.80;99.90
13174;DHT22;6652;48.802;9.190;2023-05-07T13:22:47;19.70;99.90
13174;DHT22;6652;48.802;9.190;2023-05-07T13:25:15;19.60;99.90
13174;DHT22;6652;48.802;9.190;2023-05-07T13:27:42;19.50;99.90
13174;DHT22;6652;48.802;9.190;2023-05-07T13:30:09;19.20;99.90
13174;DHT22;6652;48.802;9.190;2023-05-07T13:32:50;19.00;99.90
13174;DHT22;6652;48.802;9.190;2023-05-07T13:35:17;18.90;99.90
13174;DHT22;6652;48.802;9.190;2023-05-07T13:37:44;18.80;99.90
13174;DHT22;6652;48.802;9.190;2023-05-07T13:40:11;18.90;99.90
13174;DHT22;6652;48.802;9.190;2023-05-07T13:42:40;18.50;99.90
13174;DHT22;6652;48.802;9.190;2023-05-07T13:45:08;18.00;99.90
13174;DHT22;6652;48.802;9.190;2023-05-07T13:47:35;17.40;99.90
13174;DHT22;6652;48.802;9.190;2023-05-07T13:50:02;16.60;99.90
13174;DHT22;6652;48.802;9.190;2023-05-07T13:52:29;16.10;99.90
13174;DHT22;6652;48.802;9.190;2023-05-07T13:54:56;15.90;99.90
13174;DHT22;6652;48.802;9.190;2023-05-07T13:57:24;15.90;99.90
13174;DHT22;6652;48.802;9.190;2023-05-07T13:59:52;16.20;99.90
13174;DHT22;6652;48.802;9.190;2023-05-07T14:02:19;16.40;99.90
13174;DHT22;6652;48.802;9.190;2023-05-07T14:04:46;16.60;99.90
13174;DHT22;6652;48.802;9.190;2023-05-07T14:07:12;16.80;99.90
13174;DHT22;6652;48.802;9.190;2023-05-07T14:09:40;16.90;99.90
13174;DHT22;6652;48.802;9.190;2023-05-07T14:12:07;16.90;99.90
13174;DHT22;6652;48.802;9.190;2023-05-07T14:14:34;16.80;99.90
13174;DHT22;6652;48.802;9.190;2023-05-07T14:17:02;16.60;99.90
13174;DHT22;6652;48.802;9.190;2023-05-07T14:19:28;16.60;99.90
13174;DHT22;6652;48.802;9.190;2023-05-07T14:21:55;16.60;99.90
13174;DHT22;6652;48.802;9.190;2023-05-07T14:24:23;16.70;99.90
13174;DHT22;6652;48.802;9.190;2023-05-07T14:26:51;16.90;99.90
13174;DHT22;6652;48.802;9.190;2023-05-07T14:29:18;16.80;99.90
13174;DHT22;6652;48.802;9.190;2023-05-07T14:31:45;16.80;99.90
13174;DHT22;6652;48.802;9.190;2023-05-07T14:34:13;16.90;99.90
13174;DHT22;6652;48.802;9.190;2023-05-07T14:36:40;16.90;99.90
13174;DHT22;6652;48.802;9.190;2023-05-07T14:39:11;17.00;99.90
13174;DHT22;6652;48.802;9.190;2023-05-07T14:41:40;17.20;99.90
13174;DHT22;6652;48.802;9.190;2023-05-07T14:44:13;17.10;99.90
13174;DHT22;6652;48.802;9.190;2023-05-07T14:46:40;17.10;99.90
13174;DHT22;6652;48.802;9.190;2023-05-07T14:49:07;17.00;99.90
13174;DHT22;6652;48.802;9.190;2023-05-07T14:51:43;17.10;99.90
13174;DHT22;6652;48.802;9.190;2023-05-07T14:54:10;17.00;99.90
13174;DHT22;6652;48.802;9.190;2023-05-07T14:56:38;17.10;99.90
13174;DHT22;6652;48.802;9.190;2023-05-07T14:59:05;17.10;99.90
13174;DHT22;6652;48.802;9.190;2023-05-07T15:01:36;17.10;99.90
13174;DHT22;6652;48.802;9.190;2023-05-07T15:04:04;17.20;99.90
13174;DHT22;6652;48.802;9.190;2023-05-07T15:06:32;17.30;99.90
13174;DHT22;6652;48.802;9.190;2023-05-07T15:09:00;17.40;99.90
13174;DHT22;6652;48.802;9.190;2023-05-07T15:11:28;17.50;99.90
13174;DHT22;6652;48.802;9.190;2023-05-07T15:13:55;17.50;99.90
13174;DHT22;6652;48.802;9.190;2023-05-07T15:16:23;17.70;99.90
13174;DHT22;6652;48.802;9.190;2023-05-07T15:18:50;17.70;99.90
13174;DHT22;6652;48.802;9.190;2023-05-07T15:21:17;17.80;99.90
13174;DHT22;6652;48.802;9.190;2023-05-07T15:23:44;17.60;99.90
13174;DHT22;6652;48.802;9.190;2023-05-07T15:26:12;17.60;99.90
13174;DHT22;6652;48.802;9.190;2023-05-07T15:28:39;17.60;99.90
13174;DHT22;6652;48.802;9.190;2023-05-07T15:31:06;17.60;99.90
13174;DHT22;6652;48.802;9.190;2023-05-07T15:33:34;17.80;99.90
13174;DHT22;6652;48.802;9.190;2023-05-07T15:36:01;18.00;99.90
13174;DHT22;6652;48.802;9.190;2023-05-07T15:38:29;18.00;99.90
13174;DHT22;6652;48.802;9.190;2023-05-07T15:40:56;18.10;99.90
13174;DHT22;6652;48.802;9.190;2023-05-07T15:43:24;18.30;99.90
13174;DHT22;6652;48.802;9.190;2023-05-07T15:45:51;18.20;99.90
13174;DHT22;6652;48.802;9.190;2023-05-07T15:48:19;18.30;99.90
13174;DHT22;6652;48.802;9.190;2023-05-07T15:50:47;18.40;99.90
13174;DHT22;6652;48.802;9.190;2023-05-07T15:53:14;18.40;99.90